createdAt,value
2022-12-29T00:01:23.697Z,70.28
2022-12-29T00:16:24.255Z,79.93
2022-12-29T00:31:24.919Z,87.60
2022-12-29T00:46:26.020Z,88.59
2022-12-29T01:01:27.286Z,85.51
2022-12-29T01:16:28.241Z,81.02
2022-12-29T01:31:29.853Z,78.44
2022-12-29T01:46:31.444Z,77.21
2022-12-29T02:01:35.150Z,69.18
2022-12-29T02:16:35.995Z,69.28
2022-12-29T02:31:37.601Z,78.75
2022-12-29T02:46:38.677Z,89.52
2022-12-29T03:01:39.535Z,95.45
2022-12-29T03:16:39.924Z,99.99
2022-12-29T03:31:40.304Z,99.99
2022-12-29T03:46:41.316Z,99.99
2022-12-29T04:01:42.582Z,99.99
2022-12-29T04:16:43.177Z,99.99
2022-12-29T04:31:45.778Z,99.99
2022-12-29T04:46:46.798Z,99.99
2022-12-29T05:01:47.497Z,99.99
2022-12-29T05:16:48.539Z,99.99
2022-12-29T05:31:49.729Z,99.99
2022-12-29T05:46:50.308Z,99.99
2022-12-29T06:01:51.124Z,99.99
2022-12-29T06:16:51.506Z,99.99
2022-12-29T06:31:52.904Z,99.99
2022-12-29T06:46:53.681Z,99.99
2022-12-29T07:01:54.681Z,99.99
2022-12-29T07:16:55.576Z,99.99
2022-12-29T07:31:56.181Z,99.99
2022-12-29T07:46:58.019Z,99.99
2022-12-29T08:02:00.514Z,99.99
2022-12-29T08:17:00.921Z,99.99
2022-12-29T08:32:02.056Z,99.99
2022-12-29T08:47:03.145Z,99.99
2022-12-29T09:02:04.001Z,99.99
2022-12-29T09:17:04.345Z,99.99
2022-12-29T09:32:07.820Z,98.77
2022-12-29T09:47:08.716Z,93.60
2022-12-29T10:02:09.346Z,94.81
2022-12-29T10:17:10.383Z,94.17
2022-12-29T10:32:11.499Z,92.40
2022-12-29T10:47:12.095Z,92.80
2022-12-29T11:02:13.013Z,95.13
2022-12-29T11:17:14.809Z,95.53
2022-12-29T11:32:16.053Z,98.64
2022-12-29T11:47:16.738Z,99.50
2022-12-29T12:02:17.376Z,98.93
2022-12-29T12:17:17.764Z,99.99
2022-12-29T12:32:18.416Z,99.99
2022-12-29T12:47:19.020Z,99.99
2022-12-29T13:02:19.947Z,99.99
2022-12-29T13:17:20.235Z,99.99
2022-12-29T13:32:20.548Z,99.99
2022-12-29T13:47:21.775Z,99.99
2022-12-29T14:02:22.862Z,99.99
2022-12-29T14:17:23.918Z,99.99
2022-12-29T14:32:24.544Z,99.99
2022-12-29T14:47:26.044Z,95.57
2022-12-29T15:02:26.599Z,97.45
2022-12-29T15:17:27.553Z,91.69
2022-12-29T15:32:27.668Z,91.47
2022-12-29T15:47:28.366Z,85.55
2022-12-29T16:02:29.117Z,73.64
2022-12-29T16:17:29.467Z,78.53
2022-12-29T16:32:30.896Z,84.96
2022-12-29T16:47:30.911Z,85.78
2022-12-29T17:02:31.763Z,88.96
2022-12-29T17:17:33.244Z,99.69
2022-12-29T17:32:34.356Z,99.99
2022-12-29T17:47:35.130Z,99.99
2022-12-29T18:02:36.037Z,99.99
2022-12-29T18:17:37.467Z,99.99
2022-12-29T18:32:37.903Z,99.99
2022-12-29T18:47:38.997Z,99.99
2022-12-29T19:02:39.292Z,99.99
2022-12-29T19:17:39.513Z,99.99
2022-12-29T19:32:40.031Z,99.99
2022-12-29T19:47:41.185Z,99.99
2022-12-29T20:02:42.429Z,99.99
2022-12-29T20:18:12.449Z,99.99
2022-12-29T20:32:48.487Z,99.99
2022-12-29T20:47:50.086Z,99.99
2022-12-29T21:02:51.505Z,99.99
2022-12-29T21:17:52.425Z,99.99
2022-12-29T21:32:53.495Z,99.99
2022-12-29T21:47:55.110Z,99.99
2022-12-29T22:02:56.474Z,99.99
2022-12-29T22:17:57.319Z,99.99
2022-12-29T22:32:58.985Z,99.99
2022-12-29T22:48:00.094Z,99.59
2022-12-29T23:03:00.846Z,95.28
2022-12-29T23:18:01.834Z,93.08
2022-12-29T23:33:02.949Z,94.46
2022-12-29T23:48:03.525Z,95.74
